createdAt,value
2022-09-28T00:02:23.350Z,9.80
2022-09-28T00:04:53.928Z,9.72
2022-09-28T00:07:25.505Z,9.63
2022-09-28T00:09:56.020Z,9.66
2022-09-28T00:12:28.923Z,9.64
2022-09-28T00:14:58.013Z,9.55
2022-09-28T00:17:29.649Z,9.57
2022-09-28T00:20:01.209Z,9.60
2022-09-28T00:22:32.832Z,9.54
2022-09-28T00:25:03.098Z,9.52
2022-09-28T00:27:33.074Z,9.51
2022-09-28T00:30:03.121Z,9.45
2022-09-28T00:32:37.937Z,9.43
2022-09-28T00:35:09.229Z,9.46
2022-09-28T00:37:39.258Z,9.42
2022-09-28T00:40:09.760Z,9.43
2022-09-28T00:42:43.043Z,9.41
2022-09-28T00:45:12.836Z,9.44
2022-09-28T00:47:50.315Z,9.48
2022-09-28T00:50:22.292Z,9.36
2022-09-28T00:52:55.671Z,9.41
2022-09-28T00:55:33.018Z,9.26
2022-09-28T00:58:04.996Z,9.32
2022-09-28T01:00:34.017Z,9.29
2022-09-28T01:03:05.392Z,9.16
2022-09-28T01:05:34.885Z,9.19
2022-09-28T01:08:04.384Z,9.08
2022-09-28T01:10:35.114Z,9.12
2022-09-28T01:13:04.087Z,9.00
2022-09-28T01:15:37.808Z,8.99
2022-09-28T01:18:15.407Z,8.97
2022-09-28T01:20:59.322Z,8.98
2022-09-28T01:23:41.429Z,9.07
2022-09-28T01:26:35.250Z,9.03
2022-09-28T01:29:08.538Z,9.06
2022-09-28T01:31:38.677Z,9.07
2022-09-28T01:34:13.298Z,9.01
2022-09-28T01:45:18.898Z,9.00
2022-09-28T01:58:59.810Z,8.80
2022-09-28T02:21:42.838Z,8.84
2022-09-28T02:39:13.030Z,8.69
2022-09-28T02:54:51.376Z,8.53
2022-09-28T03:38:51.474Z,8.27
2022-09-28T04:51:49.719Z,8.68
2022-09-28T04:54:23.295Z,8.76
2022-09-28T06:00:47.656Z,8.88
2022-09-28T06:03:16.663Z,8.84
2022-09-28T06:05:49.774Z,8.88
2022-09-28T06:08:39.505Z,8.94
2022-09-28T06:11:14.455Z,9.00
2022-09-28T06:13:43.516Z,9.07
2022-09-28T06:16:21.212Z,9.09
2022-09-28T06:18:51.127Z,8.96
2022-09-28T06:21:19.921Z,9.07
2022-09-28T06:23:49.577Z,9.22
2022-09-28T06:26:18.187Z,9.27
2022-09-28T06:29:06.149Z,9.39
2022-09-28T06:31:50.303Z,9.45
2022-09-28T06:39:41.961Z,9.23
2022-09-28T06:42:12.293Z,9.39
2022-09-28T06:44:42.446Z,9.43
2022-09-28T06:47:15.858Z,9.45
2022-09-28T06:49:46.307Z,9.53
2022-09-28T06:52:15.303Z,9.57
2022-09-28T06:54:44.228Z,9.60
2022-09-28T06:57:13.042Z,9.56
2022-09-28T06:59:42.152Z,9.56
2022-09-28T07:02:13.305Z,9.50
2022-09-28T07:04:43.424Z,9.46
2022-09-28T07:07:12.430Z,9.48
2022-09-28T07:15:42.822Z,9.71
2022-09-28T07:18:21.152Z,9.78
2022-09-28T07:20:54.409Z,9.71
2022-09-28T07:23:23.306Z,9.77
2022-09-28T07:25:53.904Z,9.80
2022-09-28T07:28:24.677Z,9.86
2022-09-28T07:30:53.698Z,10.01
2022-09-28T07:33:31.920Z,10.02
2022-09-28T07:36:06.704Z,9.96
2022-09-28T07:38:38.335Z,9.98
2022-09-28T07:41:23.580Z,10.11
2022-09-28T07:43:57.580Z,10.17
2022-09-28T07:46:28.463Z,10.28
2022-09-28T07:49:09.952Z,10.24
2022-09-28T07:51:45.241Z,10.15
2022-09-28T07:54:14.002Z,10.08
2022-09-28T07:56:42.556Z,10.20
2022-09-28T07:59:20.350Z,10.17
2022-09-28T08:01:50.258Z,10.22
2022-09-28T08:04:21.196Z,10.27
2022-09-28T08:06:50.646Z,10.31
2022-09-28T08:09:20.193Z,10.23
2022-09-28T08:12:00.704Z,10.26
2022-09-28T08:14:38.716Z,10.36
2022-09-28T08:17:10.640Z,10.45
2022-09-28T08:20:02.977Z,10.45
2022-09-28T08:22:33.381Z,10.45
2022-09-28T08:28:02.949Z,10.51
2022-09-28T08:30:38.231Z,10.61
2022-09-28T08:33:09.024Z,10.70
2022-09-28T08:36:04.374Z,10.83
2022-09-28T08:38:36.521Z,10.95
2022-09-28T08:41:14.008Z,11.09
2022-09-28T08:43:53.137Z,11.10
2022-09-28T08:46:26.963Z,11.09
2022-09-28T08:49:23.816Z,11.06
2022-09-28T08:52:02.246Z,10.67
2022-09-28T08:54:42.433Z,10.81
2022-09-28T08:57:17.282Z,10.91
2022-09-28T08:59:48.708Z,11.02
2022-09-28T09:02:22.997Z,10.91
2022-09-28T09:04:57.006Z,10.96
2022-09-28T09:13:35.240Z,10.88
2022-09-28T09:16:08.684Z,10.75
2022-09-28T09:18:48.970Z,10.80
2022-09-28T09:21:31.436Z,10.81
2022-09-28T09:24:14.576Z,10.85
2022-09-28T09:27:08.540Z,10.81
2022-09-28T09:29:54.552Z,10.94
2022-09-28T09:32:35.445Z,10.78
2022-09-28T09:35:27.243Z,10.88
2022-09-28T09:38:11.945Z,10.99
2022-09-28T09:40:58.231Z,11.23
2022-09-28T09:43:46.412Z,11.27
2022-09-28T09:46:30.966Z,11.41
2022-09-28T09:49:20.738Z,11.70
2022-09-28T09:51:56.117Z,11.94
2022-09-28T09:54:32.425Z,12.19
2022-09-28T09:57:13.253Z,12.41
2022-09-28T09:59:55.050Z,12.48
2022-09-28T10:02:31.630Z,12.53
2022-09-28T10:05:07.323Z,12.45
2022-09-28T10:07:53.034Z,12.32
2022-09-28T10:10:33.734Z,12.02
2022-09-28T10:13:10.033Z,12.01
2022-09-28T10:15:44.253Z,12.05
2022-09-28T10:18:21.557Z,12.15
2022-09-28T10:20:53.823Z,12.16
2022-09-28T10:23:38.972Z,12.15
2022-09-28T10:26:26.169Z,12.06
2022-09-28T10:31:49.192Z,12.05
2022-09-28T10:34:21.164Z,12.03
2022-09-28T10:36:55.876Z,12.04
2022-09-28T10:39:39.546Z,12.02
2022-09-28T10:42:17.646Z,11.90
2022-09-28T10:44:57.297Z,11.85
2022-09-28T10:47:33.978Z,11.69
2022-09-28T10:50:06.966Z,11.86
2022-09-28T10:52:38.026Z,11.81
2022-09-28T10:55:32.944Z,11.78
2022-09-28T10:58:21.725Z,11.56
2022-09-28T11:00:55.033Z,11.48
2022-09-28T11:03:28.648Z,11.43
2022-09-28T11:06:05.152Z,11.48
2022-09-28T11:08:47.657Z,11.53
2022-09-28T11:14:34.646Z,11.52
2022-09-28T11:17:19.772Z,11.57
2022-09-28T11:19:57.518Z,11.50
2022-09-28T11:52:16.411Z,11.37
2022-09-28T11:54:48.469Z,11.50
2022-09-28T11:57:21.930Z,11.55
2022-09-28T12:03:20.455Z,11.40
2022-09-28T12:11:56.456Z,11.58
2022-09-28T12:14:49.165Z,11.64
2022-09-28T12:17:27.928Z,11.71
2022-09-28T12:20:00.470Z,11.82
2022-09-28T12:22:51.558Z,11.62
2022-09-28T12:25:28.781Z,11.70
2022-09-28T12:28:00.044Z,11.66
2022-09-28T12:30:37.727Z,11.63
2022-09-28T12:33:12.812Z,11.78
2022-09-28T12:36:13.792Z,11.80
2022-09-28T12:41:54.890Z,11.89
2022-09-28T12:44:38.966Z,11.85
2022-09-28T12:50:45.599Z,11.94
2022-09-28T12:59:16.765Z,12.02
2022-09-28T13:01:56.839Z,11.92
2022-09-28T13:24:47.423Z,11.93
2022-09-28T13:27:36.575Z,11.87
2022-09-28T13:32:50.359Z,11.70
2022-09-28T13:38:30.966Z,11.75
2022-09-28T13:47:39.831Z,11.55
2022-09-28T13:50:23.823Z,11.44
2022-09-28T14:01:38.525Z,11.57
2022-09-28T14:13:04.200Z,11.55
2022-09-28T14:15:46.355Z,11.50
2022-09-28T14:53:20.235Z,11.09
2022-09-28T14:58:44.293Z,11.08
2022-09-28T15:01:21.280Z,11.06
2022-09-28T15:06:46.944Z,11.05
2022-09-28T16:09:10.054Z,10.77
2022-09-28T16:14:52.964Z,10.59
2022-09-28T16:36:45.659Z,11.01
2022-09-28T17:22:02.425Z,10.89
2022-09-28T17:24:42.146Z,10.62
2022-09-28T17:27:14.450Z,10.49
2022-09-28T17:29:48.263Z,10.47
2022-09-28T17:32:23.811Z,10.51
2022-09-28T17:35:06.581Z,10.49
2022-09-28T17:37:50.869Z,10.44
2022-09-28T17:40:22.373Z,10.49
2022-09-28T17:42:55.317Z,10.47
2022-09-28T17:45:34.560Z,10.56
2022-09-28T17:48:04.612Z,10.57
2022-09-28T18:00:12.866Z,10.61
2022-09-28T18:02:49.630Z,10.68
2022-09-28T18:05:32.027Z,10.70
2022-09-28T18:08:08.213Z,10.66
2022-09-28T18:10:43.581Z,10.79
2022-09-28T18:13:19.460Z,10.73
2022-09-28T18:15:55.474Z,10.74
2022-09-28T18:18:30.174Z,10.74
2022-09-28T18:21:04.363Z,10.80
2022-09-28T18:23:40.525Z,10.78
2022-09-28T18:26:12.957Z,10.79
2022-09-28T18:28:54.503Z,10.77
2022-09-28T18:31:34.203Z,10.76
2022-09-28T18:34:18.083Z,10.64
2022-09-28T18:36:47.470Z,10.46
2022-09-28T18:39:17.999Z,10.37
2022-09-28T18:41:47.225Z,10.44
2022-09-28T18:44:21.084Z,10.45
2022-09-28T18:46:51.553Z,10.53
2022-09-28T18:49:21.022Z,10.32
2022-09-28T18:51:54.052Z,10.21
2022-09-28T18:54:39.531Z,10.33
2022-09-28T18:57:08.476Z,10.23
2022-09-28T18:59:39.743Z,10.11
2022-09-28T19:02:12.467Z,10.18
2022-09-28T19:04:46.564Z,10.21
2022-09-28T19:07:19.961Z,10.21
2022-09-28T19:09:49.323Z,10.32
2022-09-28T19:12:27.424Z,10.44
2022-09-28T19:15:15.304Z,10.42
2022-09-28T19:17:55.248Z,10.38
2022-09-28T19:20:33.707Z,10.26
2022-09-28T19:23:05.580Z,10.29
2022-09-28T19:25:41.495Z,10.24
2022-09-28T19:28:20.408Z,10.31
2022-09-28T19:36:43.968Z,10.35
2022-09-28T19:42:09.266Z,10.36
2022-09-28T19:44:40.927Z,10.44
2022-09-28T19:47:20.835Z,10.46
2022-09-28T19:58:03.256Z,10.61
2022-09-28T20:00:34.306Z,10.58
2022-09-28T20:03:04.878Z,10.56
2022-09-28T20:05:40.846Z,10.55
2022-09-28T20:08:09.887Z,10.55
2022-09-28T20:11:01.516Z,10.59
2022-09-28T20:13:34.058Z,10.64
2022-09-28T20:16:14.238Z,10.56
2022-09-28T20:18:56.268Z,10.61
2022-09-28T20:21:39.163Z,10.58
2022-09-28T20:24:15.360Z,10.47
2022-09-28T20:26:48.689Z,10.48
2022-09-28T20:29:20.850Z,10.47
2022-09-28T20:31:58.017Z,10.47
2022-09-28T20:34:26.815Z,10.49
2022-09-28T20:37:02.380Z,10.47
2022-09-28T20:39:46.117Z,10.44
2022-09-28T20:42:20.845Z,10.44
2022-09-28T20:44:51.530Z,10.39
2022-09-28T20:47:24.686Z,10.37
2022-09-28T21:13:15.031Z,10.51
2022-09-28T21:16:05.315Z,10.43
2022-09-28T21:21:59.145Z,10.42
2022-09-28T21:46:27.844Z,10.36
2022-09-28T21:52:08.801Z,10.27
2022-09-28T22:01:12.905Z,10.25
2022-09-28T22:07:17.439Z,10.32
2022-09-28T22:15:27.137Z,10.14
2022-09-28T22:18:11.596Z,10.21
2022-09-28T22:20:53.204Z,10.20
2022-09-28T22:23:33.945Z,10.20
2022-09-28T22:26:07.989Z,10.27
2022-09-28T22:31:34.854Z,10.25
2022-09-28T22:36:48.184Z,10.21
2022-09-28T22:39:37.715Z,10.23
2022-09-28T22:42:13.901Z,10.22
2022-09-28T22:44:42.377Z,10.21
2022-09-28T22:49:48.931Z,10.34
2022-09-28T22:55:00.313Z,10.43
2022-09-28T22:57:30.834Z,10.44
2022-09-28T23:00:00.909Z,10.45
2022-09-28T23:02:31.557Z,10.44
2022-09-28T23:05:02.783Z,10.43
2022-09-28T23:07:32.756Z,10.41
2022-09-28T23:10:14.813Z,10.44
2022-09-28T23:15:34.870Z,10.47
2022-09-28T23:18:11.460Z,10.46
2022-09-28T23:20:42.061Z,10.43
2022-09-28T23:26:03.082Z,10.31
2022-09-28T23:28:42.487Z,10.30
2022-09-28T23:31:16.220Z,10.29
2022-09-28T23:33:47.184Z,10.33
2022-09-28T23:36:20.051Z,10.34
2022-09-28T23:38:50.904Z,10.37
2022-09-28T23:41:28.944Z,10.39
